createdAt,value
2023-01-07T00:00:03.596Z,93
2023-01-07T00:16:00.677Z,93
2023-01-07T00:31:03.064Z,93
2023-01-07T00:46:04.787Z,93
2023-01-07T01:00:01.529Z,93
2023-01-07T01:16:03.955Z,94
2023-01-07T01:31:01.684Z,93
2023-01-07T01:46:02.994Z,94
2023-01-07T02:00:04.627Z,94
2023-01-07T02:16:02.190Z,94
2023-01-07T02:31:04.148Z,94
2023-01-07T02:46:01.469Z,94
2023-01-07T03:00:03.313Z,94
2023-01-07T03:16:00.612Z,94
2023-01-07T03:31:02.667Z,94
2023-01-07T03:46:04.936Z,94
2023-01-07T04:00:01.770Z,94
2023-01-07T04:16:04.020Z,94
2023-01-07T04:31:01.319Z,94
2023-01-07T04:46:03.465Z,94
2023-01-07T05:00:00.683Z,94
2023-01-07T05:16:02.652Z,94
2023-01-07T05:31:04.815Z,94
2023-01-07T05:46:01.871Z,94
2023-01-07T06:00:03.840Z,94
2023-01-07T06:16:01.250Z,94
2023-01-07T06:31:03.240Z,94
2023-01-07T06:46:00.681Z,94
2023-01-07T07:00:02.415Z,95
2023-01-07T07:16:04.743Z,95
2023-01-07T07:31:01.971Z,95
2023-01-07T07:46:04.729Z,95
2023-01-07T08:00:01.005Z,95
2023-01-07T08:16:03.181Z,96
2023-01-07T08:31:05.271Z,96
2023-01-07T08:46:02.174Z,96
2023-01-07T09:00:03.838Z,96
2023-01-07T09:16:01.040Z,96
2023-01-07T09:31:03.206Z,95
2023-01-07T09:46:00.858Z,95
2023-01-07T10:00:02.273Z,95
2023-01-07T10:16:04.699Z,93
2023-01-07T10:31:01.601Z,91
2023-01-07T10:46:03.770Z,88
2023-01-07T11:00:00.397Z,86
2023-01-07T11:16:02.604Z,85
2023-01-07T11:31:04.520Z,83
2023-01-07T11:46:19.644Z,83
2023-01-07T12:00:03.801Z,82
2023-01-07T12:16:00.915Z,82
2023-01-07T12:31:03.201Z,81
2023-01-07T12:46:00.564Z,78
2023-01-07T13:00:02.005Z,77
2023-01-07T13:16:04.638Z,76
2023-01-07T13:31:01.403Z,75
2023-01-07T13:46:03.371Z,74
2023-01-07T14:00:00.454Z,73
2023-01-07T14:16:02.632Z,75
2023-01-07T14:31:04.725Z,76
2023-01-07T14:46:01.802Z,77
2023-01-07T15:00:03.610Z,78
2023-01-07T15:16:00.918Z,79
2023-01-07T15:31:03.075Z,80
2023-01-07T15:46:01.638Z,81
2023-01-07T16:00:02.971Z,82
2023-01-07T16:16:04.187Z,82
2023-01-07T16:31:01.745Z,84
2023-01-07T16:46:03.552Z,85
2023-01-07T17:00:08.912Z,86
2023-01-07T17:16:02.541Z,87
2023-01-07T17:31:04.624Z,87
2023-01-07T17:46:01.974Z,88
2023-01-07T18:00:03.856Z,89
2023-01-07T18:16:01.390Z,90
2023-01-07T18:31:07.358Z,90
2023-01-07T18:46:00.536Z,91
2023-01-07T19:00:02.480Z,91
2023-01-07T19:16:04.383Z,92
2023-01-07T19:31:02.173Z,92
2023-01-07T19:46:05.923Z,92
2023-01-07T20:00:00.513Z,93
2023-01-07T20:16:02.628Z,93
2023-01-07T20:31:04.625Z,93
2023-01-07T20:46:01.783Z,93
2023-01-07T21:00:03.443Z,94
2023-01-07T21:16:00.630Z,93
2023-01-07T21:31:04.133Z,94
2023-01-07T21:46:04.643Z,94
2023-01-07T22:00:01.548Z,94
2023-01-07T22:16:03.766Z,94
2023-01-07T22:31:00.885Z,94
2023-01-07T22:46:03.093Z,94
2023-01-07T23:00:00.132Z,94
2023-01-07T23:16:02.095Z,94
2023-01-07T23:31:04.169Z,94
2023-01-07T23:46:01.607Z,95
